sensor_id;sensor_type;location;lat;lon;timestamp;P1;durP1;ratioP1;P2;durP2;ratioP2
27357;SDS011;14831;50.474;7.616;2023-03-14T00:00:35;1.7;;;0.8;;
27357;SDS011;14831;50.474;7.616;2023-03-14T00:05:35;1.7;;;0.8;;
27357;SDS011;14831;50.474;7.616;2023-03-14T00:10:35;2.0;;;0.9;;
27357;SDS011;14831;50.474;7.616;2023-03-14T00:15:35;2.0;;;0.9;;
27357;SDS011;14831;50.474;7.616;2023-03-14T00:20:35;2.0;;;0.9;;
27357;SDS011;14831;50.474;7.616;2023-03-14T00:25:35;2.0;;;0.9;;
27357;SDS011;14831;50.474;7.616;2023-03-14T00:30:37;2.0;;;0.9;;
27357;SDS011;14831;50.474;7.616;2023-03-14T00:35:35;2.0;;;0.9;;
27357;SDS011;14831;50.474;7.616;2023-03-14T00:40:38;2.2;;;0.8;;
27357;SDS011;14831;50.474;7.616;2023-03-14T00:45:35;2.2;;;0.8;;
27357;SDS011;14831;50.474;7.616;2023-03-14T00:50:35;2.2;;;0.8;;
27357;SDS011;14831;50.474;7.616;2023-03-14T00:55:36;2.2;;;0.8;;
27357;SDS011;14831;50.474;7.616;2023-03-14T01:00:36;2.2;;;0.8;;
27357;SDS011;14831;50.474;7.616;2023-03-14T01:05:36;2.2;;;0.8;;
27357;SDS011;14831;50.474;7.616;2023-03-14T01:10:38;1.9;;;0.8;;
27357;SDS011;14831;50.474;7.616;2023-03-14T01:15:36;1.9;;;0.8;;
27357;SDS011;14831;50.474;7.616;2023-03-14T01:20:37;1.9;;;0.8;;
27357;SDS011;14831;50.474;7.616;2023-03-14T01:25:40;1.9;;;0.8;;
27357;SDS011;14831;50.474;7.616;2023-03-14T01:30:35;1.9;;;0.8;;
27357;SDS011;14831;50.474;7.616;2023-03-14T01:35:35;1.9;;;0.8;;
27357;SDS011;14831;50.474;7.616;2023-03-14T01:40:42;1.2;;;0.7;;
27357;SDS011;14831;50.474;7.616;2023-03-14T01:46:44;1.2;;;0.7;;
27357;SDS011;14831;50.474;7.616;2023-03-14T01:50:35;1.2;;;0.7;;
27357;SDS011;14831;50.474;7.616;2023-03-14T01:55:36;1.2;;;0.7;;
27357;SDS011;14831;50.474;7.616;2023-03-14T02:00:35;1.2;;;0.7;;
27357;SDS011;14831;50.474;7.616;2023-03-14T02:05:38;1.2;;;0.7;;
27357;SDS011;14831;50.474;7.616;2023-03-14T02:10:39;1.6;;;0.8;;
27357;SDS011;14831;50.474;7.616;2023-03-14T02:15:36;1.6;;;0.8;;
27357;SDS011;14831;50.474;7.616;2023-03-14T02:20:39;1.6;;;0.8;;
27357;SDS011;14831;50.474;7.616;2023-03-14T02:25:41;1.6;;;0.8;;
27357;SDS011;14831;50.474;7.616;2023-03-14T02:30:35;1.6;;;0.8;;
27357;SDS011;14831;50.474;7.616;2023-03-14T02:35:38;1.6;;;0.8;;
27357;SDS011;14831;50.474;7.616;2023-03-14T02:40:35;1.3;;;0.6;;
27357;SDS011;14831;50.474;7.616;2023-03-14T02:45:41;1.3;;;0.6;;
27357;SDS011;14831;50.474;7.616;2023-03-14T02:50:35;1.3;;;0.6;;
27357;SDS011;14831;50.474;7.616;2023-03-14T02:55:35;1.3;;;0.6;;
27357;SDS011;14831;50.474;7.616;2023-03-14T03:00:35;1.3;;;0.6;;
27357;SDS011;14831;50.474;7.616;2023-03-14T03:05:35;1.3;;;0.6;;
27357;SDS011;14831;50.474;7.616;2023-03-14T03:10:35;1.5;;;0.7;;
27357;SDS011;14831;50.474;7.616;2023-03-14T03:15:37;1.5;;;0.7;;
27357;SDS011;14831;50.474;7.616;2023-03-14T03:20:36;1.5;;;0.7;;
27357;SDS011;14831;50.474;7.616;2023-03-14T03:25:35;1.5;;;0.7;;
27357;SDS011;14831;50.474;7.616;2023-03-14T03:30:39;1.5;;;0.7;;
27357;SDS011;14831;50.474;7.616;2023-03-14T03:35:41;1.5;;;0.7;;
27357;SDS011;14831;50.474;7.616;2023-03-14T03:40:35;0.6;;;0.4;;
27357;SDS011;14831;50.474;7.616;2023-03-14T03:45:35;0.6;;;0.4;;
27357;SDS011;14831;50.474;7.616;2023-03-14T03:50:35;0.6;;;0.4;;
27357;SDS011;14831;50.474;7.616;2023-03-14T03:55:35;0.6;;;0.4;;
27357;SDS011;14831;50.474;7.616;2023-03-14T04:00:35;0.6;;;0.4;;
27357;SDS011;14831;50.474;7.616;2023-03-14T04:05:35;0.6;;;0.4;;
27357;SDS011;14831;50.474;7.616;2023-03-14T04:10:35;1.1;;;0.6;;
27357;SDS011;14831;50.474;7.616;2023-03-14T04:15:35;1.1;;;0.6;;
27357;SDS011;14831;50.474;7.616;2023-03-14T04:20:35;1.1;;;0.6;;
27357;SDS011;14831;50.474;7.616;2023-03-14T04:25:35;1.1;;;0.6;;
27357;SDS011;14831;50.474;7.616;2023-03-14T04:30:35;1.1;;;0.6;;
27357;SDS011;14831;50.474;7.616;2023-03-14T04:35:36;1.1;;;0.6;;
27357;SDS011;14831;50.474;7.616;2023-03-14T04:40:36;0.7;;;0.6;;
27357;SDS011;14831;50.474;7.616;2023-03-14T04:45:35;0.7;;;0.6;;
27357;SDS011;14831;50.474;7.616;2023-03-14T04:50:35;0.7;;;0.6;;
27357;SDS011;14831;50.474;7.616;2023-03-14T04:55:35;0.7;;;0.6;;
27357;SDS011;14831;50.474;7.616;2023-03-14T05:00:35;0.7;;;0.6;;
27357;SDS011;14831;50.474;7.616;2023-03-14T05:05:35;0.7;;;0.6;;
27357;SDS011;14831;50.474;7.616;2023-03-14T05:10:35;0.5;;;0.5;;
27357;SDS011;14831;50.474;7.616;2023-03-14T05:15:35;0.5;;;0.5;;
27357;SDS011;14831;50.474;7.616;2023-03-14T05:20:35;0.5;;;0.5;;
27357;SDS011;14831;50.474;7.616;2023-03-14T05:25:35;0.5;;;0.5;;
27357;SDS011;14831;50.474;7.616;2023-03-14T05:30:35;0.5;;;0.5;;
27357;SDS011;14831;50.474;7.616;2023-03-14T05:35:35;0.5;;;0.5;;
27357;SDS011;14831;50.474;7.616;2023-03-14T05:40:35;0.6;;;0.4;;
27357;SDS011;14831;50.474;7.616;2023-03-14T05:45:35;0.6;;;0.4;;
27357;SDS011;14831;50.474;7.616;2023-03-14T05:50:35;0.6;;;0.4;;
27357;SDS011;14831;50.474;7.616;2023-03-14T05:55:35;0.6;;;0.4;;
27357;SDS011;14831;50.474;7.616;2023-03-14T06:00:35;0.6;;;0.4;;
27357;SDS011;14831;50.474;7.616;2023-03-14T06:05:35;0.6;;;0.4;;
27357;SDS011;14831;50.474;7.616;2023-03-14T06:10:35;0.5;;;0.4;;
27357;SDS011;14831;50.474;7.616;2023-03-14T06:15:35;0.5;;;0.4;;
27357;SDS011;14831;50.474;7.616;2023-03-14T06:20:35;0.5;;;0.4;;
27357;SDS011;14831;50.474;7.616;2023-03-14T06:25:35;0.5;;;0.4;;
27357;SDS011;14831;50.474;7.616;2023-03-14T06:30:35;0.5;;;0.4;;
27357;SDS011;14831;50.474;7.616;2023-03-14T06:35:35;0.5;;;0.4;;
27357;SDS011;14831;50.474;7.616;2023-03-14T06:40:35;0.4;;;0.4;;
27357;SDS011;14831;50.474;7.616;2023-03-14T06:45:35;0.4;;;0.4;;
27357;SDS011;14831;50.474;7.616;2023-03-14T06:50:35;0.4;;;0.4;;
27357;SDS011;14831;50.474;7.616;2023-03-14T06:55:35;0.4;;;0.4;;
27357;SDS011;14831;50.474;7.616;2023-03-14T07:00:35;0.4;;;0.4;;
27357;SDS011;14831;50.474;7.616;2023-03-14T07:05:35;0.4;;;0.4;;
27357;SDS011;14831;50.474;7.616;2023-03-14T07:10:35;0.6;;;0.3;;
27357;SDS011;14831;50.474;7.616;2023-03-14T07:15:35;0.6;;;0.3;;
27357;SDS011;14831;50.474;7.616;2023-03-14T07:20:35;0.6;;;0.3;;
27357;SDS011;14831;50.474;7.616;2023-03-14T07:25:35;0.6;;;0.3;;
27357;SDS011;14831;50.474;7.616;2023-03-14T07:30:35;0.6;;;0.3;;
27357;SDS011;14831;50.474;7.616;2023-03-14T07:35:37;0.6;;;0.3;;
27357;SDS011;14831;50.474;7.616;2023-03-14T07:40:35;0.3;;;0.3;;
27357;SDS011;14831;50.474;7.616;2023-03-14T07:45:35;0.3;;;0.3;;
27357;SDS011;14831;50.474;7.616;2023-03-14T07:50:35;0.3;;;0.3;;
27357;SDS011;14831;50.474;7.616;2023-03-14T07:55:35;0.3;;;0.3;;
27357;SDS011;14831;50.474;7.616;2023-03-14T08:00:35;0.3;;;0.3;;
27357;SDS011;14831;50.474;7.616;2023-03-14T08:05:37;0.3;;;0.3;;
27357;SDS011;14831;50.474;7.616;2023-03-14T08:10:35;0.8;;;0.3;;
27357;SDS011;14831;50.474;7.616;2023-03-14T08:15:35;0.8;;;0.3;;
27357;SDS011;14831;50.474;7.616;2023-03-14T08:20:35;0.8;;;0.3;;
27357;SDS011;14831;50.474;7.616;2023-03-14T08:25:35;0.8;;;0.3;;
27357;SDS011;14831;50.474;7.616;2023-03-14T08:30:35;0.8;;;0.3;;
27357;SDS011;14831;50.474;7.616;2023-03-14T08:35:37;0.8;;;0.3;;
27357;SDS011;14831;50.474;7.616;2023-03-14T08:40:35;0.9;;;0.5;;
27357;SDS011;14831;50.474;7.616;2023-03-14T08:45:35;0.9;;;0.5;;
27357;SDS011;14831;50.474;7.616;2023-03-14T08:50:35;0.9;;;0.5;;
27357;SDS011;14831;50.474;7.616;2023-03-14T08:55:35;0.9;;;0.5;;
27357;SDS011;14831;50.474;7.616;2023-03-14T09:00:35;0.9;;;0.5;;
27357;SDS011;14831;50.474;7.616;2023-03-14T09:05:35;0.9;;;0.5;;
27357;SDS011;14831;50.474;7.616;2023-03-14T09:10:36;2.2;;;0.7;;
27357;SDS011;14831;50.474;7.616;2023-03-14T09:15:35;2.2;;;0.7;;
27357;SDS011;14831;50.474;7.616;2023-03-14T09:20:35;2.2;;;0.7;;
27357;SDS011;14831;50.474;7.616;2023-03-14T09:25:35;2.2;;;0.7;;
27357;SDS011;14831;50.474;7.616;2023-03-14T09:30:35;2.2;;;0.7;;
27357;SDS011;14831;50.474;7.616;2023-03-14T09:35:35;2.2;;;0.7;;
27357;SDS011;14831;50.474;7.616;2023-03-14T09:40:37;1.2;;;0.5;;
27357;SDS011;14831;50.474;7.616;2023-03-14T09:45:37;1.2;;;0.5;;
27357;SDS011;14831;50.474;7.616;2023-03-14T09:50:39;1.2;;;0.5;;
27357;SDS011;14831;50.474;7.616;2023-03-14T09:55:35;1.2;;;0.5;;
27357;SDS011;14831;50.474;7.616;2023-03-14T10:00:35;1.2;;;0.5;;
27357;SDS011;14831;50.474;7.616;2023-03-14T10:05:35;1.2;;;0.5;;
27357;SDS011;14831;50.474;7.616;2023-03-14T10:10:35;2.6;;;0.7;;
27357;SDS011;14831;50.474;7.616;2023-03-14T10:15:36;2.6;;;0.7;;
27357;SDS011;14831;50.474;7.616;2023-03-14T10:20:37;2.6;;;0.7;;
27357;SDS011;14831;50.474;7.616;2023-03-14T10:25:37;2.6;;;0.7;;
27357;SDS011;14831;50.474;7.616;2023-03-14T10:30:39;2.6;;;0.7;;
27357;SDS011;14831;50.474;7.616;2023-03-14T10:35:35;2.6;;;0.7;;
27357;SDS011;14831;50.474;7.616;2023-03-14T10:40:38;2.6;;;0.9;;
27357;SDS011;14831;50.474;7.616;2023-03-14T10:45:38;2.6;;;0.9;;
27357;SDS011;14831;50.474;7.616;2023-03-14T10:50:36;2.6;;;0.9;;
27357;SDS011;14831;50.474;7.616;2023-03-14T10:55:44;2.6;;;0.9;;
27357;SDS011;14831;50.474;7.616;2023-03-14T11:00:35;2.6;;;0.9;;
27357;SDS011;14831;50.474;7.616;2023-03-14T11:05:40;2.6;;;0.9;;
27357;SDS011;14831;50.474;7.616;2023-03-14T11:10:37;2.0;;;0.7;;
27357;SDS011;14831;50.474;7.616;2023-03-14T11:15:39;2.0;;;0.7;;
27357;SDS011;14831;50.474;7.616;2023-03-14T11:20:38;2.0;;;0.7;;
27357;SDS011;14831;50.474;7.616;2023-03-14T11:25:43;2.0;;;0.7;;
27357;SDS011;14831;50.474;7.616;2023-03-14T11:30:41;2.0;;;0.7;;
27357;SDS011;14831;50.474;7.616;2023-03-14T11:35:39;2.0;;;0.7;;
27357;SDS011;14831;50.474;7.616;2023-03-14T11:40:36;0.7;;;0.5;;
27357;SDS011;14831;50.474;7.616;2023-03-14T11:45:37;0.7;;;0.5;;
27357;SDS011;14831;50.474;7.616;2023-03-14T11:50:36;0.7;;;0.5;;
27357;SDS011;14831;50.474;7.616;2023-03-14T11:55:37;0.7;;;0.5;;
27357;SDS011;14831;50.474;7.616;2023-03-14T12:00:37;0.7;;;0.5;;
27357;SDS011;14831;50.474;7.616;2023-03-14T12:05:43;0.7;;;0.5;;
27357;SDS011;14831;50.474;7.616;2023-03-14T12:10:37;3.4;;;0.7;;
27357;SDS011;14831;50.474;7.616;2023-03-14T12:15:39;3.4;;;0.7;;
27357;SDS011;14831;50.474;7.616;2023-03-14T12:20:36;3.4;;;0.7;;
27357;SDS011;14831;50.474;7.616;2023-03-14T12:25:35;3.4;;;0.7;;
27357;SDS011;14831;50.474;7.616;2023-03-14T12:30:36;3.4;;;0.7;;
27357;SDS011;14831;50.474;7.616;2023-03-14T12:35:36;3.4;;;0.7;;
27357;SDS011;14831;50.474;7.616;2023-03-14T12:40:38;0.9;;;0.6;;
27357;SDS011;14831;50.474;7.616;2023-03-14T12:45:36;0.9;;;0.6;;
27357;SDS011;14831;50.474;7.616;2023-03-14T12:50:40;0.9;;;0.6;;
27357;SDS011;14831;50.474;7.616;2023-03-14T12:55:40;0.9;;;0.6;;
27357;SDS011;14831;50.474;7.616;2023-03-14T13:00:39;0.9;;;0.6;;
27357;SDS011;14831;50.474;7.616;2023-03-14T13:05:35;0.9;;;0.6;;
27357;SDS011;14831;50.474;7.616;2023-03-14T13:10:41;1.0;;;0.6;;
27357;SDS011;14831;50.474;7.616;2023-03-14T13:15:39;1.0;;;0.6;;
27357;SDS011;14831;50.474;7.616;2023-03-14T13:20:38;1.0;;;0.6;;
27357;SDS011;14831;50.474;7.616;2023-03-14T13:25:36;1.0;;;0.6;;
27357;SDS011;14831;50.474;7.616;2023-03-14T13:30:39;1.0;;;0.6;;
27357;SDS011;14831;50.474;7.616;2023-03-14T13:35:41;1.0;;;0.6;;
27357;SDS011;14831;50.474;7.616;2023-03-14T13:40:35;0.9;;;0.6;;
27357;SDS011;14831;50.474;7.616;2023-03-14T13:45:52;0.9;;;0.6;;
27357;SDS011;14831;50.474;7.616;2023-03-14T13:50:35;0.9;;;0.6;;
27357;SDS011;14831;50.474;7.616;2023-03-14T13:55:35;0.9;;;0.6;;
27357;SDS011;14831;50.474;7.616;2023-03-14T14:00:35;0.9;;;0.6;;
27357;SDS011;14831;50.474;7.616;2023-03-14T14:05:35;0.9;;;0.6;;
27357;SDS011;14831;50.474;7.616;2023-03-14T14:10:37;0.6;;;0.5;;
27357;SDS011;14831;50.474;7.616;2023-03-14T14:15:40;0.6;;;0.5;;
27357;SDS011;14831;50.474;7.616;2023-03-14T14:20:38;0.6;;;0.5;;
27357;SDS011;14831;50.474;7.616;2023-03-14T14:25:36;0.6;;;0.5;;
27357;SDS011;14831;50.474;7.616;2023-03-14T14:30:35;0.6;;;0.5;;
27357;SDS011;14831;50.474;7.616;2023-03-14T14:35:35;0.6;;;0.5;;
27357;SDS011;14831;50.474;7.616;2023-03-14T14:40:43;0.8;;;0.6;;
27357;SDS011;14831;50.474;7.616;2023-03-14T14:45:35;0.8;;;0.6;;
27357;SDS011;14831;50.474;7.616;2023-03-14T14:50:38;0.8;;;0.6;;
27357;SDS011;14831;50.474;7.616;2023-03-14T14:55:40;0.8;;;0.6;;
27357;SDS011;14831;50.474;7.616;2023-03-14T15:00:39;0.8;;;0.6;;
27357;SDS011;14831;50.474;7.616;2023-03-14T15:05:35;0.8;;;0.6;;
27357;SDS011;14831;50.474;7.616;2023-03-14T15:10:35;1.5;;;0.8;;
27357;SDS011;14831;50.474;7.616;2023-03-14T15:15:35;1.5;;;0.8;;
27357;SDS011;14831;50.474;7.616;2023-03-14T15:20:35;1.5;;;0.8;;
27357;SDS011;14831;50.474;7.616;2023-03-14T15:25:35;1.5;;;0.8;;
27357;SDS011;14831;50.474;7.616;2023-03-14T15:30:35;1.5;;;0.8;;
27357;SDS011;14831;50.474;7.616;2023-03-14T15:35:35;1.5;;;0.8;;
27357;SDS011;14831;50.474;7.616;2023-03-14T15:40:35;1.2;;;0.6;;
27357;SDS011;14831;50.474;7.616;2023-03-14T15:45:35;1.2;;;0.6;;
27357;SDS011;14831;50.474;7.616;2023-03-14T15:50:35;1.2;;;0.6;;
27357;SDS011;14831;50.474;7.616;2023-03-14T15:55:35;1.2;;;0.6;;
27357;SDS011;14831;50.474;7.616;2023-03-14T16:00:35;1.2;;;0.6;;
27357;SDS011;14831;50.474;7.616;2023-03-14T16:05:35;1.2;;;0.6;;
27357;SDS011;14831;50.474;7.616;2023-03-14T16:10:35;0.5;;;0.5;;
27357;SDS011;14831;50.474;7.616;2023-03-14T16:15:35;0.5;;;0.5;;
27357;SDS011;14831;50.474;7.616;2023-03-14T16:20:35;0.5;;;0.5;;
27357;SDS011;14831;50.474;7.616;2023-03-14T16:25:36;0.5;;;0.5;;
27357;SDS011;14831;50.474;7.616;2023-03-14T16:30:35;0.5;;;0.5;;
27357;SDS011;14831;50.474;7.616;2023-03-14T16:35:35;0.5;;;0.5;;
27357;SDS011;14831;50.474;7.616;2023-03-14T16:40:35;1.2;;;0.5;;
27357;SDS011;14831;50.474;7.616;2023-03-14T16:45:36;1.2;;;0.5;;
27357;SDS011;14831;50.474;7.616;2023-03-14T16:50:35;1.2;;;0.5;;
27357;SDS011;14831;50.474;7.616;2023-03-14T16:55:39;1.2;;;0.5;;
27357;SDS011;14831;50.474;7.616;2023-03-14T17:00:35;1.2;;;0.5;;
27357;SDS011;14831;50.474;7.616;2023-03-14T17:05:35;1.2;;;0.5;;
27357;SDS011;14831;50.474;7.616;2023-03-14T17:10:35;0.7;;;0.5;;
27357;SDS011;14831;50.474;7.616;2023-03-14T17:15:35;0.7;;;0.5;;
27357;SDS011;14831;50.474;7.616;2023-03-14T17:20:35;0.7;;;0.5;;
27357;SDS011;14831;50.474;7.616;2023-03-14T17:25:35;0.7;;;0.5;;
27357;SDS011;14831;50.474;7.616;2023-03-14T17:30:35;0.7;;;0.5;;
27357;SDS011;14831;50.474;7.616;2023-03-14T17:35:35;0.7;;;0.5;;
27357;SDS011;14831;50.474;7.616;2023-03-14T17:40:35;0.5;;;0.5;;
27357;SDS011;14831;50.474;7.616;2023-03-14T17:45:35;0.5;;;0.5;;
27357;SDS011;14831;50.474;7.616;2023-03-14T17:50:35;0.5;;;0.5;;
27357;SDS011;14831;50.474;7.616;2023-03-14T17:55:35;0.5;;;0.5;;
27357;SDS011;14831;50.474;7.616;2023-03-14T18:00:35;0.5;;;0.5;;
27357;SDS011;14831;50.474;7.616;2023-03-14T18:05:37;0.5;;;0.5;;
27357;SDS011;14831;50.474;7.616;2023-03-14T18:10:35;0.9;;;0.7;;
27357;SDS011;14831;50.474;7.616;2023-03-14T18:15:35;0.9;;;0.7;;
27357;SDS011;14831;50.474;7.616;2023-03-14T18:20:35;0.9;;;0.7;;
27357;SDS011;14831;50.474;7.616;2023-03-14T18:25:35;0.9;;;0.7;;
27357;SDS011;14831;50.474;7.616;2023-03-14T18:30:35;0.9;;;0.7;;
27357;SDS011;14831;50.474;7.616;2023-03-14T18:35:35;0.9;;;0.7;;
27357;SDS011;14831;50.474;7.616;2023-03-14T18:40:35;1.1;;;0.8;;
27357;SDS011;14831;50.474;7.616;2023-03-14T18:45:36;1.1;;;0.8;;
27357;SDS011;14831;50.474;7.616;2023-03-14T18:50:35;1.1;;;0.8;;
27357;SDS011;14831;50.474;7.616;2023-03-14T18:55:35;1.1;;;0.8;;
27357;SDS011;14831;50.474;7.616;2023-03-14T19:00:35;1.1;;;0.8;;
27357;SDS011;14831;50.474;7.616;2023-03-14T19:05:35;1.1;;;0.8;;
27357;SDS011;14831;50.474;7.616;2023-03-14T19:10:35;1.0;;;0.9;;
27357;SDS011;14831;50.474;7.616;2023-03-14T19:15:35;1.0;;;0.9;;
27357;SDS011;14831;50.474;7.616;2023-03-14T19:20:35;1.0;;;0.9;;
27357;SDS011;14831;50.474;7.616;2023-03-14T19:25:35;1.0;;;0.9;;
27357;SDS011;14831;50.474;7.616;2023-03-14T19:30:35;1.0;;;0.9;;
27357;SDS011;14831;50.474;7.616;2023-03-14T19:35:35;1.0;;;0.9;;
27357;SDS011;14831;50.474;7.616;2023-03-14T19:40:36;0.9;;;0.8;;
27357;SDS011;14831;50.474;7.616;2023-03-14T19:45:35;0.9;;;0.8;;
27357;SDS011;14831;50.474;7.616;2023-03-14T19:50:36;0.9;;;0.8;;
27357;SDS011;14831;50.474;7.616;2023-03-14T19:55:36;0.9;;;0.8;;
27357;SDS011;14831;50.474;7.616;2023-03-14T20:00:35;0.9;;;0.8;;
27357;SDS011;14831;50.474;7.616;2023-03-14T20:05:38;0.9;;;0.8;;
27357;SDS011;14831;50.474;7.616;2023-03-14T20:10:36;1.0;;;1.0;;
27357;SDS011;14831;50.474;7.616;2023-03-14T20:15:35;1.0;;;1.0;;
27357;SDS011;14831;50.474;7.616;2023-03-14T20:20:38;1.0;;;1.0;;
27357;SDS011;14831;50.474;7.616;2023-03-14T20:25:35;1.0;;;1.0;;
27357;SDS011;14831;50.474;7.616;2023-03-14T20:30:35;1.0;;;1.0;;
27357;SDS011;14831;50.474;7.616;2023-03-14T20:35:35;1.0;;;1.0;;
27357;SDS011;14831;50.474;7.616;2023-03-14T20:40:35;1.1;;;0.8;;
27357;SDS011;14831;50.474;7.616;2023-03-14T20:45:35;1.1;;;0.8;;
27357;SDS011;14831;50.474;7.616;2023-03-14T20:50:35;1.1;;;0.8;;
27357;SDS011;14831;50.474;7.616;2023-03-14T20:55:35;1.1;;;0.8;;
27357;SDS011;14831;50.474;7.616;2023-03-14T21:00:35;1.1;;;0.8;;
27357;SDS011;14831;50.474;7.616;2023-03-14T21:05:36;1.1;;;0.8;;
27357;SDS011;14831;50.474;7.616;2023-03-14T21:10:35;1.1;;;0.9;;
27357;SDS011;14831;50.474;7.616;2023-03-14T21:15:35;1.1;;;0.9;;
27357;SDS011;14831;50.474;7.616;2023-03-14T21:20:36;1.1;;;0.9;;
27357;SDS011;14831;50.474;7.616;2023-03-14T21:25:35;1.1;;;0.9;;
27357;SDS011;14831;50.474;7.616;2023-03-14T21:30:35;1.1;;;0.9;;
27357;SDS011;14831;50.474;7.616;2023-03-14T21:35:35;1.1;;;0.9;;
27357;SDS011;14831;50.474;7.616;2023-03-14T21:40:36;1.0;;;0.9;;
27357;SDS011;14831;50.474;7.616;2023-03-14T21:45:35;1.0;;;0.9;;
27357;SDS011;14831;50.474;7.616;2023-03-14T21:50:35;1.0;;;0.9;;
27357;SDS011;14831;50.474;7.616;2023-03-14T21:55:39;1.0;;;0.9;;
27357;SDS011;14831;50.474;7.616;2023-03-14T22:00:35;1.0;;;0.9;;
27357;SDS011;14831;50.474;7.616;2023-03-14T22:05:35;1.0;;;0.9;;
27357;SDS011;14831;50.474;7.616;2023-03-14T22:10:35;0.7;;;0.7;;
27357;SDS011;14831;50.474;7.616;2023-03-14T22:15:35;0.7;;;0.7;;
27357;SDS011;14831;50.474;7.616;2023-03-14T22:20:35;0.7;;;0.7;;
27357;SDS011;14831;50.474;7.616;2023-03-14T22:25:38;0.7;;;0.7;;
27357;SDS011;14831;50.474;7.616;2023-03-14T22:30:35;0.7;;;0.7;;
27357;SDS011;14831;50.474;7.616;2023-03-14T22:35:35;0.7;;;0.7;;
27357;SDS011;14831;50.474;7.616;2023-03-14T22:40:36;0.8;;;0.7;;
27357;SDS011;14831;50.474;7.616;2023-03-14T22:45:35;0.8;;;0.7;;
27357;SDS011;14831;50.474;7.616;2023-03-14T22:50:36;0.8;;;0.7;;
27357;SDS011;14831;50.474;7.616;2023-03-14T22:55:35;0.8;;;0.7;;
27357;SDS011;14831;50.474;7.616;2023-03-14T23:00:35;0.8;;;0.7;;
27357;SDS011;14831;50.474;7.616;2023-03-14T23:05:35;0.8;;;0.7;;
27357;SDS011;14831;50.474;7.616;2023-03-14T23:10:35;1.0;;;0.7;;
27357;SDS011;14831;50.474;7.616;2023-03-14T23:15:35;1.0;;;0.7;;
27357;SDS011;14831;50.474;7.616;2023-03-14T23:20:35;1.0;;;0.7;;
27357;SDS011;14831;50.474;7.616;2023-03-14T23:25:35;1.0;;;0.7;;
27357;SDS011;14831;50.474;7.616;2023-03-14T23:30:37;1.0;;;0.7;;
27357;SDS011;14831;50.474;7.616;2023-03-14T23:35:35;1.0;;;0.7;;
27357;SDS011;14831;50.474;7.616;2023-03-14T23:40:35;0.7;;;0.7;;
27357;SDS011;14831;50.474;7.616;2023-03-14T23:45:35;0.7;;;0.7;;
27357;SDS011;14831;50.474;7.616;2023-03-14T23:50:35;0.7;;;0.7;;
27357;SDS011;14831;50.474;7.616;2023-03-14T23:55:35;0.7;;;0.7;;
